sensor_id;sensor_type;location;lat;lon;timestamp;pressure;altitude;pressure_sealevel;temperature;humidity
62980;BME280;49075;53.988;27.678;2023-05-08T00:01:42;1001.1;;;2;49.2
62980;BME280;49075;53.988;27.678;2023-05-08T00:06:36;1001.1;;;1.9;48.9
62980;BME280;49075;53.988;27.678;2023-05-08T00:11:22;1001.1;;;1.9;49.7
62980;BME280;49075;53.988;27.678;2023-05-08T00:16:40;1001.1;;;1.8;49.1
62980;BME280;49075;53.988;27.678;2023-05-08T00:21:50;1001.1;;;1.7;49.5
62980;BME280;49075;53.988;27.678;2023-05-08T00:26:36;1001.2;;;1.7;49.2
62980;BME280;49075;53.988;27.678;2023-05-08T00:31:22;1001.2;;;1.6;49.9
62980;BME280;49075;53.988;27.678;2023-05-08T00:36:22;1001.2;;;1.5;49.3
62980;BME280;49075;53.988;27.678;2023-05-08T00:42:02;1001.2;;;1.4;50.1
62980;BME280;49075;53.988;27.678;2023-05-08T00:46:32;1001.2;;;1.4;50
62980;BME280;49075;53.988;27.678;2023-05-08T00:51:46;1001.2;;;1.3;50.5
62980;BME280;49075;53.988;27.678;2023-05-08T00:56:28;1001.2;;;1.3;50.4
62980;BME280;49075;53.988;27.678;2023-05-08T01:01:22;1001.2;;;1.3;50.7
62980;BME280;49075;53.988;27.678;2023-05-08T01:06:36;1001.3;;;1.2;50.5
62980;BME280;49075;53.988;27.678;2023-05-08T01:11:43;1001.3;;;1.2;51
62980;BME280;49075;53.988;27.678;2023-05-08T01:16:37;1001.3;;;1.2;50.6
62980;BME280;49075;53.988;27.678;2023-05-08T01:21:55;1001.3;;;1.1;51.3
62980;BME280;49075;53.988;27.678;2023-05-08T01:26:46;1001.3;;;1.1;50.6
62980;BME280;49075;53.988;27.678;2023-05-08T01:31:23;1001.4;;;1.1;51.2
62980;BME280;49075;53.988;27.678;2023-05-08T01:36:22;1001.4;;;1.1;51
62980;BME280;49075;53.988;27.678;2023-05-08T01:41:24;1001.4;;;1;51.6
62980;BME280;49075;53.988;27.678;2023-05-08T01:46:36;1001.4;;;0.9;51.4
62980;BME280;49075;53.988;27.678;2023-05-08T01:51:52;1001.5;;;0.8;52.6
62980;BME280;49075;53.988;27.678;2023-05-08T01:56:42;1001.4;;;0.8;52.1
62980;BME280;49075;53.988;27.678;2023-05-08T02:01:36;1001.5;;;0.8;52.1
62980;BME280;49075;53.988;27.678;2023-05-08T02:06:46;1001.5;;;0.8;51.7
62980;BME280;49075;53.988;27.678;2023-05-08T02:11:32;1001.5;;;0.8;51.7
62980;BME280;49075;53.988;27.678;2023-05-08T02:16:36;1001.6;;;0.8;52.3
62980;BME280;49075;53.988;27.678;2023-05-08T02:21:36;1001.6;;;0.7;51.8
62980;BME280;49075;53.988;27.678;2023-05-08T02:26:36;1001.6;;;0.7;52.2
62980;BME280;49075;53.988;27.678;2023-05-08T02:31:50;1001.6;;;0.7;51.6
62980;BME280;49075;53.988;27.678;2023-05-08T02:36:22;1001.7;;;0.6;52
62980;BME280;49075;53.988;27.678;2023-05-08T02:41:38;1001.7;;;0.7;51.7
62980;BME280;49075;53.988;27.678;2023-05-08T02:46:38;1001.7;;;0.7;51.6
62980;BME280;49075;53.988;27.678;2023-05-08T02:51:24;1001.7;;;0.7;51.5
62980;BME280;49075;53.988;27.678;2023-05-08T02:56:55;1001.7;;;0.7;51.7
62980;BME280;49075;53.988;27.678;2023-05-08T03:01:47;1001.8;;;0.8;51.3
62980;BME280;49075;53.988;27.678;2023-05-08T03:06:44;1001.8;;;0.8;51.3
62980;BME280;49075;53.988;27.678;2023-05-08T03:11:23;1001.9;;;0.9;51
62980;BME280;49075;53.988;27.678;2023-05-08T03:16:37;1001.9;;;1.1;50.6
62980;BME280;49075;53.988;27.678;2023-05-08T03:21:23;1002;;;1.3;50.2
62980;BME280;49075;53.988;27.678;2023-05-08T03:26:22;1002;;;1.6;49.5
62980;BME280;49075;53.988;27.678;2023-05-08T03:31:22;1002;;;1.8;49.3
62980;BME280;49075;53.988;27.678;2023-05-08T03:36:30;1002;;;2.1;48.6
62980;BME280;49075;53.988;27.678;2023-05-08T03:41:46;1002;;;2.1;48
62980;BME280;49075;53.988;27.678;2023-05-08T03:46:22;1002;;;2.3;47.7
62980;BME280;49075;53.988;27.678;2023-05-08T03:51:22;1002.1;;;2.4;47.5
62980;BME280;49075;53.988;27.678;2023-05-08T03:56:22;1002.1;;;2.6;47
62980;BME280;49075;53.988;27.678;2023-05-08T04:01:43;1002.1;;;2.8;46.5
62980;BME280;49075;53.988;27.678;2023-05-08T04:06:33;1002.1;;;3;46.1
62980;BME280;49075;53.988;27.678;2023-05-08T04:11:37;1002.2;;;3.2;45.9
62980;BME280;49075;53.988;27.678;2023-05-08T04:16:28;1002.2;;;3.4;45.4
62980;BME280;49075;53.988;27.678;2023-05-08T04:21:23;1002.3;;;3.6;45.1
62980;BME280;49075;53.988;27.678;2023-05-08T04:26:36;1002.3;;;3.8;44.7
62980;BME280;49075;53.988;27.678;2023-05-08T04:31:28;1002.3;;;4.2;44.2
62980;BME280;49075;53.988;27.678;2023-05-08T04:36:46;1002.3;;;4.4;43.8
62980;BME280;49075;53.988;27.678;2023-05-08T04:41:22;1002.3;;;4.8;43.4
62980;BME280;49075;53.988;27.678;2023-05-08T04:46:28;1002.3;;;5.2;42.6
62980;BME280;49075;53.988;27.678;2023-05-08T04:51:22;1002.3;;;5.6;42.2
62980;BME280;49075;53.988;27.678;2023-05-08T04:56:36;1002.3;;;6;41.5
62980;BME280;49075;53.988;27.678;2023-05-08T05:01:28;1002.3;;;6.5;40.9
62980;BME280;49075;53.988;27.678;2023-05-08T05:06:42;1002.3;;;6.8;40.1
62980;BME280;49075;53.988;27.678;2023-05-08T05:11:22;1002.3;;;7.3;39.4
62980;BME280;49075;53.988;27.678;2023-05-08T05:16:32;1002.3;;;7.6;38.7
62980;BME280;49075;53.988;27.678;2023-05-08T05:21:36;1002.3;;;8;37.9
62980;BME280;49075;53.988;27.678;2023-05-08T05:26:22;1002.3;;;8.4;37.4
62980;BME280;49075;53.988;27.678;2023-05-08T05:31:22;1002.4;;;8.9;36.5
62980;BME280;49075;53.988;27.678;2023-05-08T05:36:50;1002.4;;;9.1;36.3
62980;BME280;49075;53.988;27.678;2023-05-08T05:41:28;1002.4;;;9.3;35.4
62980;BME280;49075;53.988;27.678;2023-05-08T05:46:22;1002.4;;;9.7;35.4
62980;BME280;49075;53.988;27.678;2023-05-08T05:51:36;1002.4;;;10;34.4
62980;BME280;49075;53.988;27.678;2023-05-08T05:56:42;1002.4;;;10.4;33.9
62980;BME280;49075;53.988;27.678;2023-05-08T06:01:22;1002.4;;;10.9;32.8
62980;BME280;49075;53.988;27.678;2023-05-08T06:06:34;1002.5;;;11.6;32.2
62980;BME280;49075;53.988;27.678;2023-05-08T06:11:28;1002.5;;;12.4;30.8
62980;BME280;49075;53.988;27.678;2023-05-08T06:16:32;1002.5;;;13.1;31.1
62980;BME280;49075;53.988;27.678;2023-05-08T06:21:22;1002.5;;;14;29.8
62980;BME280;49075;53.988;27.678;2023-05-08T06:26:54;1002.5;;;15;28.8
62980;BME280;49075;53.988;27.678;2023-05-08T06:31:36;1002.5;;;15.9;25.9
62980;BME280;49075;53.988;27.678;2023-05-08T06:36:22;1002.4;;;16.9;25.5
62980;BME280;49075;53.988;27.678;2023-05-08T06:41:45;1002.5;;;17.6;22.8
62980;BME280;49075;53.988;27.678;2023-05-08T06:46:46;1002.5;;;17.9;22.8
62980;BME280;49075;53.988;27.678;2023-05-08T06:51:22;1002.5;;;18.4;20.8
62980;BME280;49075;53.988;27.678;2023-05-08T06:56:22;1002.5;;;18.7;21.1
62980;BME280;49075;53.988;27.678;2023-05-08T07:01:22;1002.4;;;19.3;19.9
62980;BME280;49075;53.988;27.678;2023-05-08T07:06:34;1002.5;;;19.6;19.5
62980;BME280;49075;53.988;27.678;2023-05-08T07:11:32;1002.5;;;19.8;18.6
62980;BME280;49075;53.988;27.678;2023-05-08T07:16:22;1002.5;;;20.7;18.8
62980;BME280;49075;53.988;27.678;2023-05-08T07:21:28;1002.4;;;20.7;17.3
62980;BME280;49075;53.988;27.678;2023-05-08T07:26:22;1002.5;;;20.5;18.1
62980;BME280;49075;53.988;27.678;2023-05-08T07:31:22;1002.5;;;20.4;17.1
62980;BME280;49075;53.988;27.678;2023-05-08T07:36:22;1002.5;;;20.3;17.6
62980;BME280;49075;53.988;27.678;2023-05-08T07:41:40;1002.5;;;20.5;17.2
62980;BME280;49075;53.988;27.678;2023-05-08T07:46:34;1002.5;;;20.7;16.2
62980;BME280;49075;53.988;27.678;2023-05-08T07:51:30;1002.6;;;20.1;16.3
62980;BME280;49075;53.988;27.678;2023-05-08T07:56:40;1002.6;;;19.9;16.5
62980;BME280;49075;53.988;27.678;2023-05-08T08:01:22;1002.5;;;18.6;16.2
62980;BME280;49075;53.988;27.678;2023-05-08T08:06:28;1002.5;;;18.9;17.1
62980;BME280;49075;53.988;27.678;2023-05-08T08:11:22;1002.5;;;20.1;16.5
62980;BME280;49075;53.988;27.678;2023-05-08T08:16:44;1002.4;;;20.5;15.6
62980;BME280;49075;53.988;27.678;2023-05-08T08:21:22;1002.4;;;20.8;15.8
62980;BME280;49075;53.988;27.678;2023-05-08T08:26:30;1002.4;;;21;15.7
62980;BME280;49075;53.988;27.678;2023-05-08T08:31:22;1002.3;;;21.1;16.1
62980;BME280;49075;53.988;27.678;2023-05-08T08:36:46;1002.3;;;21.5;15.3
62980;BME280;49075;53.988;27.678;2023-05-08T08:41:36;1002.4;;;21.3;15.5
62980;BME280;49075;53.988;27.678;2023-05-08T08:46:43;1002.3;;;22.1;15.7
62980;BME280;49075;53.988;27.678;2023-05-08T08:51:23;1002.3;;;22.1;15.3
62980;BME280;49075;53.988;27.678;2023-05-08T08:56:40;1002.4;;;21.9;15.1
62980;BME280;49075;53.988;27.678;2023-05-08T09:01:28;1002.3;;;22.7;15.4
62980;BME280;49075;53.988;27.678;2023-05-08T09:06:44;1002.3;;;23.4;14.5
62980;BME280;49075;53.988;27.678;2023-05-08T09:11:33;1002.2;;;23.5;14.3
62980;BME280;49075;53.988;27.678;2023-05-08T09:16:42;1002.2;;;23.5;14
62980;BME280;49075;53.988;27.678;2023-05-08T09:21:22;1002.1;;;24;14.4
62980;BME280;49075;53.988;27.678;2023-05-08T09:26:38;1002.1;;;24.5;13.9
62980;BME280;49075;53.988;27.678;2023-05-08T09:31:33;1002.1;;;24;13.6
62980;BME280;49075;53.988;27.678;2023-05-08T09:36:24;1002.1;;;23.7;13.6
62980;BME280;49075;53.988;27.678;2023-05-08T09:41:36;1002.1;;;23.8;13.7
62980;BME280;49075;53.988;27.678;2023-05-08T09:46:28;1002;;;24.4;13.2
62980;BME280;49075;53.988;27.678;2023-05-08T09:51:22;1001.9;;;25.5;13.1
62980;BME280;49075;53.988;27.678;2023-05-08T09:56:37;1001.9;;;25.8;12.7
62980;BME280;49075;53.988;27.678;2023-05-08T10:01:30;1001.8;;;24.7;13
62980;BME280;49075;53.988;27.678;2023-05-08T10:06:56;1001.7;;;24.6;13.6
62980;BME280;49075;53.988;27.678;2023-05-08T10:11:34;1001.7;;;24.8;12.8
62980;BME280;49075;53.988;27.678;2023-05-08T10:16:22;1001.7;;;24.5;13
62980;BME280;49075;53.988;27.678;2023-05-08T10:21:36;1001.6;;;24.9;13
62980;BME280;49075;53.988;27.678;2023-05-08T10:26:24;1001.6;;;24.8;12.7
62980;BME280;49075;53.988;27.678;2023-05-08T10:31:32;1001.6;;;24.4;13.2
62980;BME280;49075;53.988;27.678;2023-05-08T10:36:22;1001.6;;;24.7;12.9
62980;BME280;49075;53.988;27.678;2023-05-08T10:41:28;1001.5;;;23.6;13
62980;BME280;49075;53.988;27.678;2023-05-08T10:46:24;1001.5;;;23.1;13.3
62980;BME280;49075;53.988;27.678;2023-05-08T10:52:11;1001.5;;;23.8;13.1
62980;BME280;49075;53.988;27.678;2023-05-08T10:56:25;1001.5;;;23.5;12.8
62980;BME280;49075;53.988;27.678;2023-05-08T11:01:48;1001.5;;;20.7;14.2
62980;BME280;49075;53.988;27.678;2023-05-08T11:06:46;1001.4;;;19.6;15.1
62980;BME280;49075;53.988;27.678;2023-05-08T11:11:42;1001.4;;;19.3;15.5
62980;BME280;49075;53.988;27.678;2023-05-08T11:17:28;1001.4;;;18.9;15.7
62980;BME280;49075;53.988;27.678;2023-05-08T11:22:20;1001.4;;;18.4;15.9
62980;BME280;49075;53.988;27.678;2023-05-08T11:26:22;1001.4;;;17.4;16.8
62980;BME280;49075;53.988;27.678;2023-05-08T11:31:22;1001.3;;;17.1;17
62980;BME280;49075;53.988;27.678;2023-05-08T11:36:22;1001.3;;;16.3;17.7
62980;BME280;49075;53.988;27.678;2023-05-08T11:41:30;1001.3;;;15.8;18
62980;BME280;49075;53.988;27.678;2023-05-08T11:46:48;1001.2;;;15.7;18.5
62980;BME280;49075;53.988;27.678;2023-05-08T11:51:36;1001.2;;;15.5;18.5
62980;BME280;49075;53.988;27.678;2023-05-08T11:56:22;1001.2;;;15.1;18.7
62980;BME280;49075;53.988;27.678;2023-05-08T12:01:22;1001.1;;;14.5;19.6
62980;BME280;49075;53.988;27.678;2023-05-08T12:06:37;1001.1;;;14.9;19.3
62980;BME280;49075;53.988;27.678;2023-05-08T12:11:22;1001.1;;;14.9;19.4
62980;BME280;49075;53.988;27.678;2023-05-08T12:16:36;1001.1;;;14.6;19.5
62980;BME280;49075;53.988;27.678;2023-05-08T12:21:36;1000.9;;;15;19
62980;BME280;49075;53.988;27.678;2023-05-08T12:26:46;1000.9;;;14.8;19.4
62980;BME280;49075;53.988;27.678;2023-05-08T12:31:22;1000.9;;;14.7;19.6
62980;BME280;49075;53.988;27.678;2023-05-08T12:36:22;1000.9;;;14.8;19.5
62980;BME280;49075;53.988;27.678;2023-05-08T12:41:22;1000.8;;;15;19
62980;BME280;49075;53.988;27.678;2023-05-08T12:46:37;1000.8;;;15.1;19.3
62980;BME280;49075;53.988;27.678;2023-05-08T12:51:34;1000.8;;;15;19.1
62980;BME280;49075;53.988;27.678;2023-05-08T12:56:47;1000.8;;;14.7;19.2
62980;BME280;49075;53.988;27.678;2023-05-08T13:01:50;1000.7;;;14.6;19.6
62980;BME280;49075;53.988;27.678;2023-05-08T13:06:28;1000.7;;;14.7;19.7
62980;BME280;49075;53.988;27.678;2023-05-08T13:11:30;1000.7;;;14.8;19.5
62980;BME280;49075;53.988;27.678;2023-05-08T13:16:40;1000.7;;;15.1;19.5
62980;BME280;49075;53.988;27.678;2023-05-08T13:21:46;1000.7;;;14.8;19.7
62980;BME280;49075;53.988;27.678;2023-05-08T13:26:36;1000.6;;;14.3;20.1
62980;BME280;49075;53.988;27.678;2023-05-08T13:31:28;1000.6;;;13.8;20.8
62980;BME280;49075;53.988;27.678;2023-05-08T13:36:32;1000.6;;;13.6;20.8
62980;BME280;49075;53.988;27.678;2023-05-08T13:41:36;1000.5;;;13.5;21
62980;BME280;49075;53.988;27.678;2023-05-08T13:46:38;1000.5;;;13.7;20.7
62980;BME280;49075;53.988;27.678;2023-05-08T13:51:22;1000.5;;;13.8;20.7
62980;BME280;49075;53.988;27.678;2023-05-08T13:56:22;1000.4;;;13.8;20.5
62980;BME280;49075;53.988;27.678;2023-05-08T14:01:22;1000.4;;;13.8;20.4
62980;BME280;49075;53.988;27.678;2023-05-08T14:06:32;1000.4;;;14;20.2
62980;BME280;49075;53.988;27.678;2023-05-08T14:11:34;1000.4;;;13.7;20.7
62980;BME280;49075;53.988;27.678;2023-05-08T14:16:22;1000.5;;;13.4;21.3
62980;BME280;49075;53.988;27.678;2023-05-08T14:21:36;1000.4;;;13.3;21.5
62980;BME280;49075;53.988;27.678;2023-05-08T14:26:42;1000.5;;;13.3;21.2
62980;BME280;49075;53.988;27.678;2023-05-08T14:31:22;1000.4;;;13.3;21.1
62980;BME280;49075;53.988;27.678;2023-05-08T14:36:36;1000.4;;;13.2;21.2
62980;BME280;49075;53.988;27.678;2023-05-08T14:41:52;1000.4;;;13.2;21.2
62980;BME280;49075;53.988;27.678;2023-05-08T14:46:46;1000.3;;;13.3;21
62980;BME280;49075;53.988;27.678;2023-05-08T14:51:36;1000.3;;;13.4;20.5
62980;BME280;49075;53.988;27.678;2023-05-08T14:56:22;1000.3;;;13.5;20.4
62980;BME280;49075;53.988;27.678;2023-05-08T15:01:38;1000.3;;;13.4;20.3
62980;BME280;49075;53.988;27.678;2023-05-08T15:06:36;1000.2;;;13.3;20.5
62980;BME280;49075;53.988;27.678;2023-05-08T15:11:22;1000.2;;;13.5;20.5
62980;BME280;49075;53.988;27.678;2023-05-08T15:16:32;1000.2;;;13.9;20.4
62980;BME280;49075;53.988;27.678;2023-05-08T15:21:42;1000.2;;;14;20.5
62980;BME280;49075;53.988;27.678;2023-05-08T15:26:22;1000.2;;;14.1;20.5
62980;BME280;49075;53.988;27.678;2023-05-08T15:31:56;1000.1;;;14.1;20.2
62980;BME280;49075;53.988;27.678;2023-05-08T15:36:34;1000.1;;;14.1;19.8
62980;BME280;49075;53.988;27.678;2023-05-08T15:41:30;1000.1;;;14;20.2
62980;BME280;49075;53.988;27.678;2023-05-08T15:46:22;1000.1;;;13.8;20.2
62980;BME280;49075;53.988;27.678;2023-05-08T15:51:36;1000.2;;;13.4;20.6
62980;BME280;49075;53.988;27.678;2023-05-08T15:56:46;1000.2;;;13.2;20.7
62980;BME280;49075;53.988;27.678;2023-05-08T16:01:36;1000.1;;;13.3;20.8
62980;BME280;49075;53.988;27.678;2023-05-08T16:06:22;1000.1;;;13.4;20.8
62980;BME280;49075;53.988;27.678;2023-05-08T16:11:22;1000.2;;;12.9;21.5
62980;BME280;49075;53.988;27.678;2023-05-08T16:16:36;1000.2;;;12.4;22.3
62980;BME280;49075;53.988;27.678;2023-05-08T16:21:44;1000.2;;;12.4;22.4
62980;BME280;49075;53.988;27.678;2023-05-08T16:27:00;1000.2;;;12.2;22.4
62980;BME280;49075;53.988;27.678;2023-05-08T16:31:22;1000.1;;;12.3;22.4
62980;BME280;49075;53.988;27.678;2023-05-08T16:36:22;1000.1;;;12.1;22.6
62980;BME280;49075;53.988;27.678;2023-05-08T16:41:22;1000.1;;;12.1;22.7
62980;BME280;49075;53.988;27.678;2023-05-08T16:46:22;1000.1;;;12.1;22.7
62980;BME280;49075;53.988;27.678;2023-05-08T16:51:38;1000.2;;;12;22.8
62980;BME280;49075;53.988;27.678;2023-05-08T16:56:22;1000.2;;;11.9;23
62980;BME280;49075;53.988;27.678;2023-05-08T17:01:22;1000.2;;;11.8;23.2
62980;BME280;49075;53.988;27.678;2023-05-08T17:06:28;1000.2;;;11.6;23.5
62980;BME280;49075;53.988;27.678;2023-05-08T17:11:22;1000.3;;;11.4;24
62980;BME280;49075;53.988;27.678;2023-05-08T17:16:44;1000.3;;;11.3;24.3
62980;BME280;49075;53.988;27.678;2023-05-08T17:21:22;1000.4;;;11.1;24.6
62980;BME280;49075;53.988;27.678;2023-05-08T17:26:22;1000.4;;;11;24.6
62980;BME280;49075;53.988;27.678;2023-05-08T17:31:44;1000.5;;;10.8;25.2
62980;BME280;49075;53.988;27.678;2023-05-08T17:36:38;1000.5;;;10.6;25.4
62980;BME280;49075;53.988;27.678;2023-05-08T17:41:22;1000.5;;;10.5;25.8
62980;BME280;49075;53.988;27.678;2023-05-08T17:46:40;1000.6;;;10.3;25.9
62980;BME280;49075;53.988;27.678;2023-05-08T17:51:22;1000.6;;;10.1;26.3
62980;BME280;49075;53.988;27.678;2023-05-08T17:56:22;1000.6;;;10;26.9
62980;BME280;49075;53.988;27.678;2023-05-08T18:01:22;1000.6;;;9.8;27.4
62980;BME280;49075;53.988;27.678;2023-05-08T18:06:22;1000.6;;;9.7;27.9
62980;BME280;49075;53.988;27.678;2023-05-08T18:11:23;1000.7;;;9.6;29.2
62980;BME280;49075;53.988;27.678;2023-05-08T18:16:22;1000.7;;;9.4;29.6
62980;BME280;49075;53.988;27.678;2023-05-08T18:21:44;1000.8;;;9.2;30.7
62980;BME280;49075;53.988;27.678;2023-05-08T18:26:56;1000.8;;;9;30.9
62980;BME280;49075;53.988;27.678;2023-05-08T18:31:28;1000.8;;;8.8;31.6
62980;BME280;49075;53.988;27.678;2023-05-08T18:36:46;1000.9;;;8.7;31.9
62980;BME280;49075;53.988;27.678;2023-05-08T18:41:22;1001;;;8.5;33
62980;BME280;49075;53.988;27.678;2023-05-08T18:46:38;1001;;;8.5;32.8
62980;BME280;49075;53.988;27.678;2023-05-08T18:51:32;1001;;;8.3;33.9
62980;BME280;49075;53.988;27.678;2023-05-08T18:56:22;1001;;;8.2;33.8
62980;BME280;49075;53.988;27.678;2023-05-08T19:01:22;1001;;;8.1;34.7
62980;BME280;49075;53.988;27.678;2023-05-08T19:06:44;1001;;;8;34.4
62980;BME280;49075;53.988;27.678;2023-05-08T19:11:22;1001;;;7.9;35.5
62980;BME280;49075;53.988;27.678;2023-05-08T19:16:22;1001.1;;;7.7;35.3
62980;BME280;49075;53.988;27.678;2023-05-08T19:21:36;1001.1;;;7.5;36.2
62980;BME280;49075;53.988;27.678;2023-05-08T19:26:44;1001.1;;;7.4;36
62980;BME280;49075;53.988;27.678;2023-05-08T19:31:22;1001.1;;;7.3;36.7
62980;BME280;49075;53.988;27.678;2023-05-08T19:37:00;1001.2;;;7.2;36.8
62980;BME280;49075;53.988;27.678;2023-05-08T19:41:40;1001.2;;;7.1;36.7
62980;BME280;49075;53.988;27.678;2023-05-08T19:46:46;1001.2;;;7;37.4
62980;BME280;49075;53.988;27.678;2023-05-08T19:51:22;1001.2;;;6.8;37.5
62980;BME280;49075;53.988;27.678;2023-05-08T19:56:22;1001.2;;;6.8;37.5
62980;BME280;49075;53.988;27.678;2023-05-08T20:01:22;1001.2;;;6.7;37.7
62980;BME280;49075;53.988;27.678;2023-05-08T20:06:48;1001.2;;;6.6;37.9
62980;BME280;49075;53.988;27.678;2023-05-08T20:11:44;1001.2;;;6.4;38.1
62980;BME280;49075;53.988;27.678;2023-05-08T20:16:38;1001.2;;;6.3;38.7
62980;BME280;49075;53.988;27.678;2023-05-08T20:21:34;1001.2;;;6.2;38.6
62980;BME280;49075;53.988;27.678;2023-05-08T20:26:22;1001.2;;;6.1;39.2
62980;BME280;49075;53.988;27.678;2023-05-08T20:31:22;1001.2;;;5.9;39.2
62980;BME280;49075;53.988;27.678;2023-05-08T20:36:22;1001.3;;;5.8;40.1
62980;BME280;49075;53.988;27.678;2023-05-08T20:41:52;1001.3;;;5.7;39.8
62980;BME280;49075;53.988;27.678;2023-05-08T20:46:48;1001.3;;;5.7;40.9
62980;BME280;49075;53.988;27.678;2023-05-08T20:51:40;1001.3;;;5.6;40.1
62980;BME280;49075;53.988;27.678;2023-05-08T20:56:22;1001.3;;;5.5;40.7
62980;BME280;49075;53.988;27.678;2023-05-08T21:01:22;1001.3;;;5.5;40.4
62980;BME280;49075;53.988;27.678;2023-05-08T21:06:22;1001.4;;;5.4;41.2
62980;BME280;49075;53.988;27.678;2023-05-08T21:11:32;1001.4;;;5.3;40.9
62980;BME280;49075;53.988;27.678;2023-05-08T21:16:36;1001.4;;;5.2;41.8
62980;BME280;49075;53.988;27.678;2023-05-08T21:21:22;1001.5;;;5.2;41.5
62980;BME280;49075;53.988;27.678;2023-05-08T21:26:44;1001.5;;;5.1;42.4
62980;BME280;49075;53.988;27.678;2023-05-08T21:31:42;1001.5;;;5;42
62980;BME280;49075;53.988;27.678;2023-05-08T21:36:22;1001.5;;;4.9;42.1
62980;BME280;49075;53.988;27.678;2023-05-08T21:41:32;1001.5;;;4.8;42.6
62980;BME280;49075;53.988;27.678;2023-05-08T21:46:22;1001.5;;;4.8;42.4
62980;BME280;49075;53.988;27.678;2023-05-08T21:51:22;1001.5;;;4.8;42.4
62980;BME280;49075;53.988;27.678;2023-05-08T21:56:22;1001.5;;;4.7;42.7
62980;BME280;49075;53.988;27.678;2023-05-08T22:01:48;1001.5;;;4.7;42.4
62980;BME280;49075;53.988;27.678;2023-05-08T22:06:28;1001.6;;;4.4;42.5
62980;BME280;49075;53.988;27.678;2023-05-08T22:11:36;1001.6;;;4.4;42.8
62980;BME280;49075;53.988;27.678;2023-05-08T22:16:22;1001.5;;;4.4;42.6
62980;BME280;49075;53.988;27.678;2023-05-08T22:21:22;1001.5;;;4.4;43.2
62980;BME280;49075;53.988;27.678;2023-05-08T22:26:36;1001.5;;;4.4;42.8
62980;BME280;49075;53.988;27.678;2023-05-08T22:31:44;1001.5;;;4.4;43.7
62980;BME280;49075;53.988;27.678;2023-05-08T22:36:44;1001.5;;;4.3;43.4
62980;BME280;49075;53.988;27.678;2023-05-08T22:41:22;1001.5;;;4.3;44
62980;BME280;49075;53.988;27.678;2023-05-08T22:46:36;1001.5;;;4.2;43.6
62980;BME280;49075;53.988;27.678;2023-05-08T22:51:46;1001.4;;;4.1;44.1
62980;BME280;49075;53.988;27.678;2023-05-08T22:56:48;1001.5;;;4.1;43.9
62980;BME280;49075;53.988;27.678;2023-05-08T23:01:28;1001.4;;;4;44.3
62980;BME280;49075;53.988;27.678;2023-05-08T23:06:28;1001.5;;;4;44.2
62980;BME280;49075;53.988;27.678;2023-05-08T23:11:23;1001.5;;;3.8;44.9
62980;BME280;49075;53.988;27.678;2023-05-08T23:16:34;1001.5;;;3.8;44.7
62980;BME280;49075;53.988;27.678;2023-05-08T23:21:32;1001.5;;;3.6;45.3
62980;BME280;49075;53.988;27.678;2023-05-08T23:26:22;1001.5;;;3.5;44.9
62980;BME280;49075;53.988;27.678;2023-05-08T23:31:28;1001.5;;;3.4;45.7
62980;BME280;49075;53.988;27.678;2023-05-08T23:36:22;1001.6;;;3.4;45.2
62980;BME280;49075;53.988;27.678;2023-05-08T23:41:35;1001.6;;;3.3;46
62980;BME280;49075;53.988;27.678;2023-05-08T23:46:30;1001.6;;;3.3;46
62980;BME280;49075;53.988;27.678;2023-05-08T23:51:23;1001.6;;;3.2;46.2
62980;BME280;49075;53.988;27.678;2023-05-08T23:56:32;1001.6;;;3.2;45.8
